Pagrindinis puslapis
METAR-TAF:

METAR-TAF

Oro uostai :

Bušehras, Iranas

platuma: 28-59N, ilguma: 050-50E, Aukštis: 19 m

Dabartinis oras

Ataskaita buvo paskelbta 15 minutes, ne 10:00 UTC
Vėjas 10 kt iš Vakarų
Temperatūra 34°C
Drėgmė 53%
Slėgis 1014 hPa
Matomumas: 5000 m
migla

METAR: OIBB 141000Z 28010KT 5000 HZ NSC 34/23 Q1013 A2994

Laikas: 13:45 (10:15 UTC)


TAF: trūkstamas

Orai ataskaitas ir orų prognozės (METAR, TAF).

turimą stotys yra geltonos ir raudonos taškus žemėlapyje.

Perkelti pele per norėdami pamatyti stoties vardą.

Tada spustelėkite, norėdami matyti oro stebėjimo ir prognozės.

Norėdami pakeisti žemėlapį: spustelėkite ant žalios mygtukų su juodo kryžiaus žemyn,; žalią mygtuką su brūkšneliu, jei norite nutolinti; arba žalių rodyklių gretimoms žemėlapius.


METAR-TAF: